sensor_id;sensor_type;location;lat;lon;timestamp;temperature;humidity
40053;DHT22;25758;48.200;16.338;2023-04-19T00:00:37;11.70;99.90
40053;DHT22;25758;48.200;16.338;2023-04-19T00:03:05;11.80;99.90
40053;DHT22;25758;48.200;16.338;2023-04-19T00:05:31;11.80;99.90
40053;DHT22;25758;48.200;16.338;2023-04-19T00:07:57;11.70;99.90
40053;DHT22;25758;48.200;16.338;2023-04-19T00:10:23;11.70;99.90
40053;DHT22;25758;48.200;16.338;2023-04-19T00:12:49;11.70;99.90
40053;DHT22;25758;48.200;16.338;2023-04-19T00:15:14;11.70;99.90
40053;DHT22;25758;48.200;16.338;2023-04-19T00:17:40;11.70;99.90
40053;DHT22;25758;48.200;16.338;2023-04-19T00:20:06;11.60;99.90
40053;DHT22;25758;48.200;16.338;2023-04-19T00:22:33;11.70;99.90
40053;DHT22;25758;48.200;16.338;2023-04-19T00:24:58;11.60;99.90
40053;DHT22;25758;48.200;16.338;2023-04-19T00:27:24;11.60;99.90
40053;DHT22;25758;48.200;16.338;2023-04-19T00:29:50;11.60;99.90
40053;DHT22;25758;48.200;16.338;2023-04-19T00:32:15;11.60;99.90
40053;DHT22;25758;48.200;16.338;2023-04-19T00:34:41;11.60;99.90
40053;DHT22;25758;48.200;16.338;2023-04-19T00:37:09;11.60;99.90
40053;DHT22;25758;48.200;16.338;2023-04-19T00:39:36;11.60;99.90
40053;DHT22;25758;48.200;16.338;2023-04-19T00:42:02;11.60;99.90
40053;DHT22;25758;48.200;16.338;2023-04-19T00:44:27;11.50;99.90
40053;DHT22;25758;48.200;16.338;2023-04-19T00:46:54;11.50;99.90
40053;DHT22;25758;48.200;16.338;2023-04-19T00:49:21;11.50;99.90
40053;DHT22;25758;48.200;16.338;2023-04-19T00:51:51;11.50;99.90
40053;DHT22;25758;48.200;16.338;2023-04-19T00:54:17;11.50;99.90
40053;DHT22;25758;48.200;16.338;2023-04-19T00:56:44;11.50;99.90
40053;DHT22;25758;48.200;16.338;2023-04-19T00:59:10;11.50;99.90
40053;DHT22;25758;48.200;16.338;2023-04-19T01:01:37;11.50;99.90
40053;DHT22;25758;48.200;16.338;2023-04-19T01:04:04;11.50;99.90
40053;DHT22;25758;48.200;16.338;2023-04-19T01:06:29;11.50;99.90
40053;DHT22;25758;48.200;16.338;2023-04-19T01:08:56;11.50;99.90
40053;DHT22;25758;48.200;16.338;2023-04-19T01:11:25;11.50;99.90
40053;DHT22;25758;48.200;16.338;2023-04-19T01:13:51;11.40;99.90
40053;DHT22;25758;48.200;16.338;2023-04-19T01:16:17;11.40;99.90
40053;DHT22;25758;48.200;16.338;2023-04-19T01:18:43;11.40;99.90
40053;DHT22;25758;48.200;16.338;2023-04-19T01:21:09;11.40;99.90
40053;DHT22;25758;48.200;16.338;2023-04-19T01:23:35;11.40;99.90
40053;DHT22;25758;48.200;16.338;2023-04-19T01:26:01;11.30;99.90
40053;DHT22;25758;48.200;16.338;2023-04-19T01:28:27;11.30;99.90
40053;DHT22;25758;48.200;16.338;2023-04-19T01:30:53;11.30;99.90
40053;DHT22;25758;48.200;16.338;2023-04-19T01:33:22;11.30;99.90
40053;DHT22;25758;48.200;16.338;2023-04-19T01:35:48;11.30;99.90
40053;DHT22;25758;48.200;16.338;2023-04-19T01:38:14;11.20;99.90
40053;DHT22;25758;48.200;16.338;2023-04-19T01:40:40;11.20;99.90
40053;DHT22;25758;48.200;16.338;2023-04-19T01:43:06;11.20;99.90
40053;DHT22;25758;48.200;16.338;2023-04-19T01:45:32;11.10;99.90
40053;DHT22;25758;48.200;16.338;2023-04-19T01:47:59;11.20;99.90
40053;DHT22;25758;48.200;16.338;2023-04-19T01:50:27;11.10;99.90
40053;DHT22;25758;48.200;16.338;2023-04-19T01:52:53;11.10;99.90
40053;DHT22;25758;48.200;16.338;2023-04-19T01:55:18;11.10;99.90
40053;DHT22;25758;48.200;16.338;2023-04-19T01:57:44;11.10;99.90
40053;DHT22;25758;48.200;16.338;2023-04-19T02:00:10;11.10;99.90
40053;DHT22;25758;48.200;16.338;2023-04-19T02:02:37;11.10;99.90
40053;DHT22;25758;48.200;16.338;2023-04-19T02:05:04;11.10;99.90
40053;DHT22;25758;48.200;16.338;2023-04-19T02:07:30;11.00;99.90
40053;DHT22;25758;48.200;16.338;2023-04-19T02:09:56;11.00;99.90
40053;DHT22;25758;48.200;16.338;2023-04-19T02:12:25;11.10;99.90
40053;DHT22;25758;48.200;16.338;2023-04-19T02:14:53;11.10;99.90
40053;DHT22;25758;48.200;16.338;2023-04-19T02:17:22;11.10;99.90
40053;DHT22;25758;48.200;16.338;2023-04-19T02:19:47;11.00;99.90
40053;DHT22;25758;48.200;16.338;2023-04-19T02:22:13;11.10;99.90
40053;DHT22;25758;48.200;16.338;2023-04-19T02:24:39;11.00;99.90
40053;DHT22;25758;48.200;16.338;2023-04-19T02:27:05;11.00;99.90
40053;DHT22;25758;48.200;16.338;2023-04-19T02:29:31;11.00;99.90
40053;DHT22;25758;48.200;16.338;2023-04-19T02:31:57;11.00;99.90
40053;DHT22;25758;48.200;16.338;2023-04-19T02:34:22;11.00;99.90
40053;DHT22;25758;48.200;16.338;2023-04-19T02:36:48;10.90;99.90
40053;DHT22;25758;48.200;16.338;2023-04-19T02:39:14;11.00;99.90
40053;DHT22;25758;48.200;16.338;2023-04-19T02:41:41;11.00;99.90
40053;DHT22;25758;48.200;16.338;2023-04-19T02:44:06;10.90;99.90
40053;DHT22;25758;48.200;16.338;2023-04-19T02:46:32;11.00;99.90
40053;DHT22;25758;48.200;16.338;2023-04-19T02:49:01;10.90;99.90
40053;DHT22;25758;48.200;16.338;2023-04-19T02:51:27;10.90;99.90
40053;DHT22;25758;48.200;16.338;2023-04-19T02:53:53;10.90;99.90
40053;DHT22;25758;48.200;16.338;2023-04-19T02:56:19;11.00;99.90
40053;DHT22;25758;48.200;16.338;2023-04-19T02:58:45;10.90;99.90
40053;DHT22;25758;48.200;16.338;2023-04-19T03:01:11;10.90;99.90
40053;DHT22;25758;48.200;16.338;2023-04-19T03:03:37;10.90;99.90
40053;DHT22;25758;48.200;16.338;2023-04-19T03:06:02;10.90;99.90
40053;DHT22;25758;48.200;16.338;2023-04-19T03:08:28;11.00;99.90
40053;DHT22;25758;48.200;16.338;2023-04-19T03:10:54;11.00;99.90
40053;DHT22;25758;48.200;16.338;2023-04-19T03:13:20;11.00;99.90
40053;DHT22;25758;48.200;16.338;2023-04-19T03:15:46;11.00;99.90
40053;DHT22;25758;48.200;16.338;2023-04-19T03:18:12;10.90;99.90
40053;DHT22;25758;48.200;16.338;2023-04-19T03:20:38;11.00;99.90
40053;DHT22;25758;48.200;16.338;2023-04-19T03:23:03;11.00;99.90
40053;DHT22;25758;48.200;16.338;2023-04-19T03:25:29;11.00;99.90
40053;DHT22;25758;48.200;16.338;2023-04-19T03:27:55;11.00;99.90
40053;DHT22;25758;48.200;16.338;2023-04-19T03:30:21;11.00;99.90
40053;DHT22;25758;48.200;16.338;2023-04-19T03:32:46;11.00;99.90
40053;DHT22;25758;48.200;16.338;2023-04-19T03:35:12;11.00;99.90
40053;DHT22;25758;48.200;16.338;2023-04-19T03:37:38;11.00;99.90
40053;DHT22;25758;48.200;16.338;2023-04-19T03:40:04;11.00;99.90
40053;DHT22;25758;48.200;16.338;2023-04-19T03:42:30;11.10;99.90
40053;DHT22;25758;48.200;16.338;2023-04-19T03:44:56;11.10;99.90
40053;DHT22;25758;48.200;16.338;2023-04-19T03:47:21;11.10;99.90
40053;DHT22;25758;48.200;16.338;2023-04-19T03:49:47;11.00;99.90
40053;DHT22;25758;48.200;16.338;2023-04-19T03:52:13;11.10;99.90
40053;DHT22;25758;48.200;16.338;2023-04-19T03:54:38;11.10;99.90
40053;DHT22;25758;48.200;16.338;2023-04-19T03:57:04;11.10;99.90
40053;DHT22;25758;48.200;16.338;2023-04-19T03:59:30;11.10;99.90
40053;DHT22;25758;48.200;16.338;2023-04-19T04:01:56;11.10;99.90
40053;DHT22;25758;48.200;16.338;2023-04-19T04:04:22;11.10;99.90
40053;DHT22;25758;48.200;16.338;2023-04-19T04:06:47;11.10;99.90
40053;DHT22;25758;48.200;16.338;2023-04-19T04:09:13;11.10;99.90
40053;DHT22;25758;48.200;16.338;2023-04-19T04:11:38;11.10;99.90
40053;DHT22;25758;48.200;16.338;2023-04-19T04:14:05;11.10;99.90
40053;DHT22;25758;48.200;16.338;2023-04-19T04:16:31;11.10;99.90
40053;DHT22;25758;48.200;16.338;2023-04-19T04:18:56;11.10;99.90
40053;DHT22;25758;48.200;16.338;2023-04-19T04:21:22;11.10;99.90
40053;DHT22;25758;48.200;16.338;2023-04-19T04:23:49;11.10;99.90
40053;DHT22;25758;48.200;16.338;2023-04-19T04:26:15;11.10;99.90
40053;DHT22;25758;48.200;16.338;2023-04-19T04:28:40;11.10;99.90
40053;DHT22;25758;48.200;16.338;2023-04-19T04:31:06;11.00;99.90
40053;DHT22;25758;48.200;16.338;2023-04-19T04:33:32;11.10;99.90
40053;DHT22;25758;48.200;16.338;2023-04-19T04:35:58;11.10;99.90
40053;DHT22;25758;48.200;16.338;2023-04-19T04:38:23;11.10;99.90
40053;DHT22;25758;48.200;16.338;2023-04-19T04:40:51;11.10;99.90
40053;DHT22;25758;48.200;16.338;2023-04-19T04:43:21;11.10;99.90
40053;DHT22;25758;48.200;16.338;2023-04-19T04:45:47;11.00;99.90
40053;DHT22;25758;48.200;16.338;2023-04-19T04:48:13;11.00;99.90
40053;DHT22;25758;48.200;16.338;2023-04-19T04:50:39;11.10;99.90
40053;DHT22;25758;48.200;16.338;2023-04-19T04:53:04;11.10;99.90
40053;DHT22;25758;48.200;16.338;2023-04-19T04:55:31;11.10;99.90
40053;DHT22;25758;48.200;16.338;2023-04-19T04:57:56;11.10;99.90
40053;DHT22;25758;48.200;16.338;2023-04-19T05:00:22;11.00;99.90
40053;DHT22;25758;48.200;16.338;2023-04-19T05:02:48;11.00;99.90
40053;DHT22;25758;48.200;16.338;2023-04-19T05:05:14;11.00;99.90
40053;DHT22;25758;48.200;16.338;2023-04-19T05:07:39;11.00;99.90
40053;DHT22;25758;48.200;16.338;2023-04-19T05:10:06;11.00;99.90
40053;DHT22;25758;48.200;16.338;2023-04-19T05:12:32;11.00;99.90
40053;DHT22;25758;48.200;16.338;2023-04-19T05:14:58;10.90;99.90
40053;DHT22;25758;48.200;16.338;2023-04-19T05:17:23;11.00;99.90
40053;DHT22;25758;48.200;16.338;2023-04-19T05:19:49;11.00;99.90
40053;DHT22;25758;48.200;16.338;2023-04-19T05:22:15;10.90;99.90
40053;DHT22;25758;48.200;16.338;2023-04-19T05:24:41;10.90;99.90
40053;DHT22;25758;48.200;16.338;2023-04-19T05:27:06;11.00;99.90
40053;DHT22;25758;48.200;16.338;2023-04-19T05:29:32;11.00;99.90
40053;DHT22;25758;48.200;16.338;2023-04-19T05:31:58;11.00;99.90
40053;DHT22;25758;48.200;16.338;2023-04-19T05:34:24;11.00;99.90
40053;DHT22;25758;48.200;16.338;2023-04-19T05:36:49;11.00;99.90
40053;DHT22;25758;48.200;16.338;2023-04-19T05:39:15;11.00;99.90
40053;DHT22;25758;48.200;16.338;2023-04-19T05:41:41;11.00;99.90
40053;DHT22;25758;48.200;16.338;2023-04-19T05:44:07;11.00;99.90
40053;DHT22;25758;48.200;16.338;2023-04-19T05:46:33;10.90;99.90
40053;DHT22;25758;48.200;16.338;2023-04-19T05:48:58;10.90;99.90
40053;DHT22;25758;48.200;16.338;2023-04-19T05:51:24;11.00;99.90
40053;DHT22;25758;48.200;16.338;2023-04-19T05:53:51;11.00;99.90
40053;DHT22;25758;48.200;16.338;2023-04-19T05:56:17;11.00;99.90
40053;DHT22;25758;48.200;16.338;2023-04-19T05:58:43;10.90;99.90
40053;DHT22;25758;48.200;16.338;2023-04-19T06:01:09;10.90;99.90
40053;DHT22;25758;48.200;16.338;2023-04-19T06:03:34;11.00;99.90
40053;DHT22;25758;48.200;16.338;2023-04-19T06:06:00;11.00;99.90
40053;DHT22;25758;48.200;16.338;2023-04-19T06:08:26;11.00;99.90
40053;DHT22;25758;48.200;16.338;2023-04-19T06:10:51;11.00;99.90
40053;DHT22;25758;48.200;16.338;2023-04-19T06:13:18;11.00;99.90
40053;DHT22;25758;48.200;16.338;2023-04-19T06:15:45;11.00;99.90
40053;DHT22;25758;48.200;16.338;2023-04-19T06:18:11;11.10;99.90
40053;DHT22;25758;48.200;16.338;2023-04-19T06:20:37;11.10;99.90
40053;DHT22;25758;48.200;16.338;2023-04-19T06:23:03;11.10;99.90
40053;DHT22;25758;48.200;16.338;2023-04-19T06:25:29;11.10;99.90
40053;DHT22;25758;48.200;16.338;2023-04-19T06:27:55;11.10;99.90
40053;DHT22;25758;48.200;16.338;2023-04-19T06:30:21;11.10;99.90
40053;DHT22;25758;48.200;16.338;2023-04-19T06:32:47;11.10;99.90
40053;DHT22;25758;48.200;16.338;2023-04-19T06:35:13;11.10;99.90
40053;DHT22;25758;48.200;16.338;2023-04-19T06:37:39;11.10;99.90
40053;DHT22;25758;48.200;16.338;2023-04-19T06:40:05;11.10;99.90
40053;DHT22;25758;48.200;16.338;2023-04-19T06:42:33;11.10;99.90
40053;DHT22;25758;48.200;16.338;2023-04-19T06:44:59;11.10;99.90
40053;DHT22;25758;48.200;16.338;2023-04-19T06:47:25;11.00;99.90
40053;DHT22;25758;48.200;16.338;2023-04-19T06:52:17;11.00;99.90
40053;DHT22;25758;48.200;16.338;2023-04-19T06:54:47;10.90;99.90
40053;DHT22;25758;48.200;16.338;2023-04-19T06:57:13;10.90;99.90
40053;DHT22;25758;48.200;16.338;2023-04-19T06:59:39;10.90;99.90
40053;DHT22;25758;48.200;16.338;2023-04-19T07:02:05;10.90;99.90
40053;DHT22;25758;48.200;16.338;2023-04-19T07:04:31;10.90;99.90
40053;DHT22;25758;48.200;16.338;2023-04-19T07:06:57;10.80;99.90
40053;DHT22;25758;48.200;16.338;2023-04-19T07:09:22;10.80;99.90
40053;DHT22;25758;48.200;16.338;2023-04-19T07:11:48;10.80;99.90
40053;DHT22;25758;48.200;16.338;2023-04-19T07:14:16;10.80;99.90
40053;DHT22;25758;48.200;16.338;2023-04-19T07:16:44;10.80;99.90
40053;DHT22;25758;48.200;16.338;2023-04-19T07:19:10;10.80;99.90
40053;DHT22;25758;48.200;16.338;2023-04-19T07:21:35;10.80;99.90
40053;DHT22;25758;48.200;16.338;2023-04-19T07:24:03;10.80;99.90
40053;DHT22;25758;48.200;16.338;2023-04-19T07:26:29;10.80;99.90
40053;DHT22;25758;48.200;16.338;2023-04-19T07:28:55;10.80;99.90
40053;DHT22;25758;48.200;16.338;2023-04-19T07:31:21;10.80;99.90
40053;DHT22;25758;48.200;16.338;2023-04-19T07:33:49;10.80;99.90
40053;DHT22;25758;48.200;16.338;2023-04-19T07:36:14;10.80;99.90
40053;DHT22;25758;48.200;16.338;2023-04-19T07:38:40;10.90;99.90
40053;DHT22;25758;48.200;16.338;2023-04-19T07:41:06;10.90;99.90
40053;DHT22;25758;48.200;16.338;2023-04-19T07:43:31;10.90;99.90
40053;DHT22;25758;48.200;16.338;2023-04-19T07:50:49;10.90;99.90
40053;DHT22;25758;48.200;16.338;2023-04-19T07:53:15;10.90;99.90
40053;DHT22;25758;48.200;16.338;2023-04-19T07:55:41;10.90;99.90
40053;DHT22;25758;48.200;16.338;2023-04-19T07:58:06;10.80;99.90
40053;DHT22;25758;48.200;16.338;2023-04-19T08:00:32;10.90;99.90
40053;DHT22;25758;48.200;16.338;2023-04-19T08:03:01;10.90;99.90
40053;DHT22;25758;48.200;16.338;2023-04-19T08:05:27;10.90;99.90
40053;DHT22;25758;48.200;16.338;2023-04-19T08:07:53;11.00;99.90
40053;DHT22;25758;48.200;16.338;2023-04-19T08:10:19;11.00;99.90
40053;DHT22;25758;48.200;16.338;2023-04-19T08:15:11;11.10;99.90
40053;DHT22;25758;48.200;16.338;2023-04-19T08:17:39;11.00;99.90
40053;DHT22;25758;48.200;16.338;2023-04-19T08:20:06;11.10;99.90
40053;DHT22;25758;48.200;16.338;2023-04-19T08:22:32;11.10;99.90
40053;DHT22;25758;48.200;16.338;2023-04-19T08:27:24;11.10;99.90
40053;DHT22;25758;48.200;16.338;2023-04-19T08:29:51;11.10;99.90
40053;DHT22;25758;48.200;16.338;2023-04-19T08:32:17;11.20;99.90
40053;DHT22;25758;48.200;16.338;2023-04-19T08:34:42;11.20;99.90
40053;DHT22;25758;48.200;16.338;2023-04-19T08:39:34;11.30;99.90
40053;DHT22;25758;48.200;16.338;2023-04-19T08:42:08;11.30;99.90
40053;DHT22;25758;48.200;16.338;2023-04-19T08:44:35;11.30;99.90
40053;DHT22;25758;48.200;16.338;2023-04-19T08:47:03;11.40;99.90
40053;DHT22;25758;48.200;16.338;2023-04-19T08:49:29;11.40;99.90
40053;DHT22;25758;48.200;16.338;2023-04-19T08:51:59;11.30;99.90
40053;DHT22;25758;48.200;16.338;2023-04-19T08:54:30;11.40;99.90
40053;DHT22;25758;48.200;16.338;2023-04-19T08:56:59;11.40;99.90
40053;DHT22;25758;48.200;16.338;2023-04-19T09:04:24;11.40;99.90
40053;DHT22;25758;48.200;16.338;2023-04-19T09:06:50;11.30;99.90
40053;DHT22;25758;48.200;16.338;2023-04-19T09:09:21;11.40;99.90
40053;DHT22;25758;48.200;16.338;2023-04-19T09:11:46;11.40;99.90
40053;DHT22;25758;48.200;16.338;2023-04-19T09:14:17;11.40;99.90
40053;DHT22;25758;48.200;16.338;2023-04-19T09:16:43;11.30;99.90
40053;DHT22;25758;48.200;16.338;2023-04-19T09:19:09;11.30;99.90
40053;DHT22;25758;48.200;16.338;2023-04-19T09:21:37;11.30;99.90
40053;DHT22;25758;48.200;16.338;2023-04-19T09:24:04;11.30;99.90
40053;DHT22;25758;48.200;16.338;2023-04-19T09:26:30;11.30;99.90
40053;DHT22;25758;48.200;16.338;2023-04-19T09:31:27;11.30;99.90
40053;DHT22;25758;48.200;16.338;2023-04-19T09:33:53;11.40;99.90
40053;DHT22;25758;48.200;16.338;2023-04-19T09:36:31;11.40;99.90
40053;DHT22;25758;48.200;16.338;2023-04-19T09:38:57;11.40;99.90
40053;DHT22;25758;48.200;16.338;2023-04-19T09:41:26;11.40;99.90
40053;DHT22;25758;48.200;16.338;2023-04-19T09:43:52;11.50;99.90
40053;DHT22;25758;48.200;16.338;2023-04-19T09:48:55;11.50;99.90
40053;DHT22;25758;48.200;16.338;2023-04-19T09:51:47;11.60;99.90
40053;DHT22;25758;48.200;16.338;2023-04-19T09:54:14;11.60;99.90
40053;DHT22;25758;48.200;16.338;2023-04-19T09:56:40;11.60;99.90
40053;DHT22;25758;48.200;16.338;2023-04-19T09:59:08;11.60;99.90
40053;DHT22;25758;48.200;16.338;2023-04-19T10:04:12;11.70;99.90
40053;DHT22;25758;48.200;16.338;2023-04-19T10:06:39;11.70;99.90
40053;DHT22;25758;48.200;16.338;2023-04-19T10:09:06;11.70;99.90
40053;DHT22;25758;48.200;16.338;2023-04-19T10:11:34;11.70;99.90
40053;DHT22;25758;48.200;16.338;2023-04-19T10:14:04;11.70;99.90
40053;DHT22;25758;48.200;16.338;2023-04-19T10:16:31;11.70;99.90
40053;DHT22;25758;48.200;16.338;2023-04-19T10:18:57;11.70;99.90
40053;DHT22;25758;48.200;16.338;2023-04-19T10:21:28;11.80;99.90
40053;DHT22;25758;48.200;16.338;2023-04-19T10:23:55;11.80;99.90
40053;DHT22;25758;48.200;16.338;2023-04-19T10:26:21;11.80;99.90
40053;DHT22;25758;48.200;16.338;2023-04-19T10:28:47;11.80;99.90
40053;DHT22;25758;48.200;16.338;2023-04-19T10:31:13;11.90;99.90
40053;DHT22;25758;48.200;16.338;2023-04-19T10:33:40;11.90;99.90
40053;DHT22;25758;48.200;16.338;2023-04-19T10:36:10;11.90;99.90
40053;DHT22;25758;48.200;16.338;2023-04-19T10:38:38;11.90;99.90
40053;DHT22;25758;48.200;16.338;2023-04-19T10:41:04;11.90;99.90
40053;DHT22;25758;48.200;16.338;2023-04-19T10:43:37;11.80;99.90
40053;DHT22;25758;48.200;16.338;2023-04-19T10:46:52;11.90;99.90
40053;DHT22;25758;48.200;16.338;2023-04-19T10:48:58;11.80;99.90
40053;DHT22;25758;48.200;16.338;2023-04-19T10:51:34;11.80;99.90
40053;DHT22;25758;48.200;16.338;2023-04-19T10:54:07;11.80;99.90
40053;DHT22;25758;48.200;16.338;2023-04-19T11:01:37;11.70;99.90
40053;DHT22;25758;48.200;16.338;2023-04-19T11:04:58;11.70;99.90
40053;DHT22;25758;48.200;16.338;2023-04-19T11:07:06;11.70;99.90
40053;DHT22;25758;48.200;16.338;2023-04-19T11:09:43;11.70;99.90
40053;DHT22;25758;48.200;16.338;2023-04-19T11:12:14;11.70;99.90
40053;DHT22;25758;48.200;16.338;2023-04-19T11:14:41;11.70;99.90
40053;DHT22;25758;48.200;16.338;2023-04-19T11:17:29;11.70;99.90
40053;DHT22;25758;48.200;16.338;2023-04-19T11:20:03;11.70;99.90
40053;DHT22;25758;48.200;16.338;2023-04-19T11:22:40;11.70;99.90
40053;DHT22;25758;48.200;16.338;2023-04-19T11:27:36;11.80;99.90
40053;DHT22;25758;48.200;16.338;2023-04-19T11:32:28;11.80;99.90
40053;DHT22;25758;48.200;16.338;2023-04-19T11:34:55;11.90;99.90
40053;DHT22;25758;48.200;16.338;2023-04-19T11:37:21;11.90;99.90
40053;DHT22;25758;48.200;16.338;2023-04-19T11:39:47;11.90;99.90
40053;DHT22;25758;48.200;16.338;2023-04-19T11:42:17;11.90;99.90
40053;DHT22;25758;48.200;16.338;2023-04-19T11:44:48;11.90;99.90
40053;DHT22;25758;48.200;16.338;2023-04-19T11:47:13;11.90;99.90
40053;DHT22;25758;48.200;16.338;2023-04-19T11:49:39;11.90;99.90
40053;DHT22;25758;48.200;16.338;2023-04-19T11:52:05;12.00;99.90
40053;DHT22;25758;48.200;16.338;2023-04-19T11:54:31;11.90;99.90
40053;DHT22;25758;48.200;16.338;2023-04-19T11:57:04;12.00;99.90
40053;DHT22;25758;48.200;16.338;2023-04-19T11:59:30;12.00;99.90
40053;DHT22;25758;48.200;16.338;2023-04-19T12:02:04;12.00;99.90
40053;DHT22;25758;48.200;16.338;2023-04-19T12:04:30;12.00;99.90
40053;DHT22;25758;48.200;16.338;2023-04-19T12:06:57;12.10;99.90
40053;DHT22;25758;48.200;16.338;2023-04-19T12:09:24;12.10;99.90
40053;DHT22;25758;48.200;16.338;2023-04-19T12:11:50;12.20;99.90
40053;DHT22;25758;48.200;16.338;2023-04-19T12:14:18;12.20;99.90
40053;DHT22;25758;48.200;16.338;2023-04-19T12:16:45;12.30;99.90
40053;DHT22;25758;48.200;16.338;2023-04-19T12:19:27;12.30;99.90
40053;DHT22;25758;48.200;16.338;2023-04-19T12:22:07;12.30;99.90
40053;DHT22;25758;48.200;16.338;2023-04-19T12:24:33;12.30;99.90
40053;DHT22;25758;48.200;16.338;2023-04-19T12:26:59;12.30;99.90
40053;DHT22;25758;48.200;16.338;2023-04-19T12:29:26;12.40;99.90
40053;DHT22;25758;48.200;16.338;2023-04-19T12:31:53;12.30;99.90
40053;DHT22;25758;48.200;16.338;2023-04-19T12:34:19;12.30;99.90
40053;DHT22;25758;48.200;16.338;2023-04-19T12:39:11;12.20;99.90
40053;DHT22;25758;48.200;16.338;2023-04-19T12:41:37;12.20;99.90
40053;DHT22;25758;48.200;16.338;2023-04-19T12:44:02;12.20;99.90
40053;DHT22;25758;48.200;16.338;2023-04-19T12:46:28;12.20;99.90
40053;DHT22;25758;48.200;16.338;2023-04-19T12:48:53;12.10;99.90
40053;DHT22;25758;48.200;16.338;2023-04-19T12:53:49;12.10;99.90
40053;DHT22;25758;48.200;16.338;2023-04-19T12:56:15;12.10;99.90
40053;DHT22;25758;48.200;16.338;2023-04-19T12:58:41;12.10;99.90
40053;DHT22;25758;48.200;16.338;2023-04-19T13:01:07;12.10;99.90
40053;DHT22;25758;48.200;16.338;2023-04-19T13:03:32;12.00;99.90
40053;DHT22;25758;48.200;16.338;2023-04-19T13:06:04;12.00;99.90
40053;DHT22;25758;48.200;16.338;2023-04-19T13:08:30;12.00;99.90
40053;DHT22;25758;48.200;16.338;2023-04-19T13:10:56;12.00;99.90
40053;DHT22;25758;48.200;16.338;2023-04-19T13:13:24;11.90;99.90
40053;DHT22;25758;48.200;16.338;2023-04-19T13:15:50;12.00;99.90
40053;DHT22;25758;48.200;16.338;2023-04-19T13:18:16;11.90;99.90
40053;DHT22;25758;48.200;16.338;2023-04-19T13:20:42;11.90;99.90
40053;DHT22;25758;48.200;16.338;2023-04-19T13:23:07;11.90;99.90
40053;DHT22;25758;48.200;16.338;2023-04-19T13:25:33;12.00;99.90
40053;DHT22;25758;48.200;16.338;2023-04-19T13:27:59;12.00;99.90
40053;DHT22;25758;48.200;16.338;2023-04-19T13:30:24;12.00;99.90
40053;DHT22;25758;48.200;16.338;2023-04-19T13:32:50;12.00;99.90
40053;DHT22;25758;48.200;16.338;2023-04-19T13:35:16;12.00;99.90
40053;DHT22;25758;48.200;16.338;2023-04-19T13:37:41;12.00;99.90
40053;DHT22;25758;48.200;16.338;2023-04-19T13:40:09;12.00;99.90
40053;DHT22;25758;48.200;16.338;2023-04-19T13:42:35;12.10;99.90
40053;DHT22;25758;48.200;16.338;2023-04-19T13:45:01;12.10;99.90
40053;DHT22;25758;48.200;16.338;2023-04-19T13:47:27;12.10;99.90
40053;DHT22;25758;48.200;16.338;2023-04-19T13:49:53;12.10;99.90
40053;DHT22;25758;48.200;16.338;2023-04-19T13:52:18;12.20;99.90
40053;DHT22;25758;48.200;16.338;2023-04-19T13:54:44;12.10;99.90
40053;DHT22;25758;48.200;16.338;2023-04-19T13:57:10;12.10;99.90
40053;DHT22;25758;48.200;16.338;2023-04-19T13:59:36;12.20;99.90
40053;DHT22;25758;48.200;16.338;2023-04-19T14:02:03;12.20;99.90
40053;DHT22;25758;48.200;16.338;2023-04-19T14:04:29;12.20;99.90
40053;DHT22;25758;48.200;16.338;2023-04-19T14:09:20;12.20;99.90
40053;DHT22;25758;48.200;16.338;2023-04-19T14:11:46;12.30;99.90
40053;DHT22;25758;48.200;16.338;2023-04-19T14:14:14;12.30;99.90
40053;DHT22;25758;48.200;16.338;2023-04-19T14:16:40;12.30;99.90
40053;DHT22;25758;48.200;16.338;2023-04-19T14:19:06;12.30;99.90
40053;DHT22;25758;48.200;16.338;2023-04-19T14:21:31;12.30;99.90
40053;DHT22;25758;48.200;16.338;2023-04-19T14:23:57;12.30;99.90
40053;DHT22;25758;48.200;16.338;2023-04-19T14:28:49;12.30;99.90
40053;DHT22;25758;48.200;16.338;2023-04-19T14:31:15;12.30;99.90
40053;DHT22;25758;48.200;16.338;2023-04-19T14:33:40;12.30;99.90
40053;DHT22;25758;48.200;16.338;2023-04-19T14:36:06;12.40;99.90
40053;DHT22;25758;48.200;16.338;2023-04-19T14:38:32;12.40;99.90
40053;DHT22;25758;48.200;16.338;2023-04-19T14:40:58;12.40;99.90
40053;DHT22;25758;48.200;16.338;2023-04-19T14:43:24;12.40;99.90
40053;DHT22;25758;48.200;16.338;2023-04-19T14:45:51;12.40;99.90
40053;DHT22;25758;48.200;16.338;2023-04-19T14:48:17;12.40;99.90
40053;DHT22;25758;48.200;16.338;2023-04-19T14:50:44;12.40;99.90
40053;DHT22;25758;48.200;16.338;2023-04-19T14:53:09;12.40;99.90
40053;DHT22;25758;48.200;16.338;2023-04-19T14:55:38;12.30;99.90
40053;DHT22;25758;48.200;16.338;2023-04-19T14:58:04;12.40;99.90
40053;DHT22;25758;48.200;16.338;2023-04-19T15:00:30;12.30;99.90
40053;DHT22;25758;48.200;16.338;2023-04-19T15:02:56;12.30;99.90
40053;DHT22;25758;48.200;16.338;2023-04-19T15:05:24;12.30;99.90
40053;DHT22;25758;48.200;16.338;2023-04-19T15:07:49;12.30;99.90
40053;DHT22;25758;48.200;16.338;2023-04-19T15:10:15;12.40;99.90
40053;DHT22;25758;48.200;16.338;2023-04-19T15:12:41;12.30;99.90
40053;DHT22;25758;48.200;16.338;2023-04-19T15:15:07;12.30;99.90
40053;DHT22;25758;48.200;16.338;2023-04-19T15:17:32;12.40;99.90
40053;DHT22;25758;48.200;16.338;2023-04-19T15:19:58;12.40;99.90
40053;DHT22;25758;48.200;16.338;2023-04-19T15:22:24;12.40;99.90
40053;DHT22;25758;48.200;16.338;2023-04-19T15:24:50;12.40;99.90
40053;DHT22;25758;48.200;16.338;2023-04-19T15:27:16;12.40;99.90
40053;DHT22;25758;48.200;16.338;2023-04-19T15:29:41;12.40;99.90
40053;DHT22;25758;48.200;16.338;2023-04-19T15:32:07;12.40;99.90
40053;DHT22;25758;48.200;16.338;2023-04-19T15:34:32;12.30;99.90
40053;DHT22;25758;48.200;16.338;2023-04-19T15:36:58;12.30;99.90
40053;DHT22;25758;48.200;16.338;2023-04-19T15:39:24;12.30;99.90
40053;DHT22;25758;48.200;16.338;2023-04-19T15:41:50;12.30;99.90
40053;DHT22;25758;48.200;16.338;2023-04-19T15:44:15;12.30;99.90
40053;DHT22;25758;48.200;16.338;2023-04-19T15:46:41;12.20;99.90
40053;DHT22;25758;48.200;16.338;2023-04-19T15:49:07;12.30;99.90
40053;DHT22;25758;48.200;16.338;2023-04-19T15:51:32;12.20;99.90
40053;DHT22;25758;48.200;16.338;2023-04-19T15:53:58;12.20;99.90
40053;DHT22;25758;48.200;16.338;2023-04-19T15:56:24;12.20;99.90
40053;DHT22;25758;48.200;16.338;2023-04-19T15:58:49;12.20;99.90